createdAt,value
2019-04-23T00:02:39.503Z,0.70
2019-04-23T00:07:10.703Z,0.90
2019-04-23T00:10:58.920Z,0.68
2019-04-23T00:15:07.485Z,0.82
2019-04-23T00:18:59.424Z,0.85
2019-04-23T00:23:11.533Z,0.90
2019-04-23T00:31:24.673Z,0.85
2019-04-23T00:35:25.812Z,0.72
2019-04-23T00:39:33.896Z,1.00
2019-04-23T00:43:43.278Z,0.70
2019-04-23T00:47:48.569Z,0.70
2019-04-23T00:51:49.661Z,1.00
2019-04-23T00:56:24.939Z,0.70
2019-04-23T01:00:13.628Z,0.80
2019-04-23T01:04:06.624Z,0.85
2019-04-23T01:08:18.604Z,0.88
2019-04-23T01:12:24.213Z,0.90
2019-04-23T01:16:23.320Z,0.80
2019-04-23T01:20:44.166Z,0.90
2019-04-23T01:24:39.974Z,0.70
2019-04-23T01:29:06.691Z,0.80
2019-04-23T01:33:25.542Z,0.93
2019-04-23T01:37:19.255Z,1.20
2019-04-23T01:41:26.992Z,1.00
2019-04-23T01:45:27.402Z,1.10
2019-04-23T01:49:48.343Z,0.90
2019-04-23T01:53:45.604Z,0.90
2019-04-23T01:58:08.630Z,1.00
2019-04-23T02:01:58.395Z,0.80
2019-04-23T02:06:00.332Z,0.98
2019-04-23T02:10:18.319Z,1.00
2019-04-23T02:14:14.863Z,1.00
2019-04-23T02:22:52.664Z,1.10
2019-04-23T02:26:43.570Z,0.90
2019-04-23T02:31:21.317Z,1.12
2019-04-23T02:35:09.989Z,1.35
2019-04-23T02:43:16.148Z,1.07
2019-04-23T02:51:33.347Z,1.05
2019-04-23T03:00:12.514Z,1.10
2019-04-23T03:03:59.596Z,1.20
2019-04-23T03:08:13.838Z,1.20
2019-04-23T03:12:08.229Z,1.20
2019-04-23T03:21:00.442Z,1.20
2019-04-23T03:37:30.915Z,1.20
2019-04-23T03:53:52.802Z,0.90
2019-04-23T03:57:41.026Z,1.47
2019-04-23T04:02:04.370Z,1.20
2019-04-23T04:09:59.444Z,1.40
2019-04-23T04:22:29.349Z,1.30
2019-04-23T04:30:38.832Z,1.67
2019-04-23T04:35:12.894Z,1.37
2019-04-23T04:38:45.059Z,1.40
2019-04-23T04:43:04.712Z,1.43
2019-04-23T04:47:18.035Z,1.43
2019-04-23T04:51:08.452Z,1.70
2019-04-23T05:07:39.856Z,1.43
2019-04-23T05:11:39.006Z,1.83
2019-04-23T05:15:39.091Z,1.67
2019-04-23T05:23:50.373Z,1.93
2019-04-23T05:28:28.465Z,2.37
2019-04-23T05:31:53.160Z,2.23
2019-04-23T05:36:12.702Z,3.17
2019-04-23T05:40:14.475Z,3.80
2019-04-23T05:44:15.499Z,3.10
2019-04-23T05:48:19.442Z,2.40
2019-04-23T05:52:24.226Z,1.97
2019-04-23T05:56:27.423Z,1.90
2019-04-23T06:00:39.550Z,2.07
2019-04-23T06:04:43.018Z,1.90
2019-04-23T06:08:47.567Z,2.03
2019-04-23T06:12:50.645Z,2.30
2019-04-23T06:25:22.047Z,1.93
2019-04-23T06:29:23.579Z,2.15
2019-04-23T06:37:38.516Z,2.10
2019-04-23T06:41:41.838Z,2.10
2019-04-23T06:45:37.822Z,2.33
2019-04-23T06:53:55.077Z,2.12
2019-04-23T06:57:54.155Z,2.12
2019-04-23T07:02:06.414Z,2.35
2019-04-23T07:10:18.451Z,1.80
2019-04-23T07:14:23.991Z,2.83
2019-04-23T07:18:27.812Z,2.40
2019-04-23T07:22:26.737Z,2.40
2019-04-23T07:30:56.139Z,2.57
2019-04-23T07:34:59.179Z,2.22
2019-04-23T07:43:16.899Z,2.52
2019-04-23T07:47:47.877Z,2.90
2019-04-23T07:52:01.182Z,2.33
2019-04-23T07:56:02.239Z,2.60
2019-04-23T08:00:00.943Z,2.60
2019-04-23T08:04:14.238Z,2.42
2019-04-23T08:08:12.999Z,2.30
2019-04-23T08:20:35.670Z,2.62
2019-04-23T08:24:52.112Z,1.92
2019-04-23T08:28:59.593Z,2.30
2019-04-23T08:32:57.615Z,2.67
2019-04-23T08:37:04.568Z,2.45
2019-04-23T08:49:31.280Z,2.30
2019-04-23T08:53:51.316Z,2.20
2019-04-23T08:57:41.256Z,2.25
2019-04-23T09:01:57.906Z,2.35
2019-04-23T09:10:07.800Z,2.47
2019-04-23T09:14:00.959Z,2.55
2019-04-23T09:22:24.683Z,2.85
2019-04-23T09:26:19.179Z,2.67
2019-04-23T09:30:28.804Z,3.12
2019-04-23T09:35:02.475Z,2.87
2019-04-23T09:39:12.740Z,2.70
2019-04-23T09:43:24.248Z,2.87
2019-04-23T09:47:51.945Z,2.98
2019-04-23T09:51:51.314Z,2.25
2019-04-23T09:56:00.883Z,2.77
2019-04-23T10:00:15.543Z,2.60
2019-04-23T10:03:57.689Z,2.55
2019-04-23T10:07:58.653Z,2.85
2019-04-23T10:11:55.402Z,3.00
2019-04-23T10:16:00.089Z,2.72
2019-04-23T10:20:06.646Z,3.15
2019-04-23T10:24:10.892Z,3.42
2019-04-23T10:32:40.069Z,2.60
2019-04-23T10:36:44.491Z,3.58
2019-04-23T10:40:50.187Z,3.00
2019-04-23T10:45:14.980Z,3.27
2019-04-23T10:53:56.787Z,3.12
2019-04-23T10:58:04.170Z,3.12
2019-04-23T11:06:28.054Z,3.00
2019-04-23T11:10:23.898Z,3.45
2019-04-23T11:14:34.438Z,3.27
2019-04-23T11:18:48.813Z,2.85
2019-04-23T11:22:45.155Z,3.20
2019-04-23T11:30:45.235Z,3.20
2019-04-23T11:39:05.265Z,2.87
2019-04-23T11:43:21.727Z,3.10
2019-04-23T11:51:48.998Z,2.85
2019-04-23T12:13:20.406Z,3.10
2019-04-23T12:21:57.059Z,3.40
2019-04-23T12:25:52.772Z,3.08
2019-04-23T12:34:09.572Z,3.30
2019-04-23T12:38:14.242Z,3.22
2019-04-23T12:42:34.440Z,3.30
2019-04-23T12:46:26.680Z,3.52
2019-04-23T12:54:52.058Z,3.10
2019-04-23T12:58:38.271Z,3.67
2019-04-23T13:06:58.305Z,3.17
2019-04-23T13:11:01.195Z,2.85
2019-04-23T13:15:11.380Z,3.30
2019-04-23T13:19:23.287Z,3.02
2019-04-23T13:27:30.113Z,2.98
2019-04-23T13:31:30.177Z,2.85
2019-04-23T13:39:49.179Z,2.92
2019-04-23T13:43:48.182Z,2.72
2019-04-23T13:52:37.824Z,2.75
2019-04-23T13:56:24.426Z,3.00
2019-04-23T14:00:35.565Z,2.70
2019-04-23T14:04:41.201Z,2.60
2019-04-23T14:13:08.423Z,3.20
2019-04-23T14:16:59.773Z,3.60
2019-04-23T14:21:06.326Z,2.92
2019-04-23T14:25:07.464Z,2.60
2019-04-23T14:29:04.131Z,2.95
2019-04-23T14:37:21.769Z,2.83
2019-04-23T14:41:44.375Z,3.22
2019-04-23T14:45:52.589Z,3.33
2019-04-23T14:50:18.577Z,2.92
2019-04-23T14:54:04.807Z,2.90
2019-04-23T15:11:29.627Z,2.15
2019-04-23T15:40:42.079Z,2.77
2019-04-23T15:44:48.752Z,2.08
2019-04-23T15:49:01.193Z,3.00
2019-04-23T15:53:01.490Z,2.90
2019-04-23T16:05:09.437Z,2.60
2019-04-23T16:09:45.283Z,2.90
2019-04-23T16:14:11.331Z,2.90
2019-04-23T16:18:26.584Z,2.22
2019-04-23T16:26:32.634Z,2.67
2019-04-23T16:30:34.908Z,2.72
2019-04-23T16:34:40.895Z,2.58
2019-04-23T16:38:52.218Z,2.40
2019-04-23T16:43:05.415Z,2.33
2019-04-23T16:47:14.491Z,2.15
2019-04-23T16:51:16.654Z,2.12
2019-04-23T16:55:29.143Z,2.33
2019-04-23T16:59:19.859Z,2.37
2019-04-23T17:03:31.276Z,2.20
2019-04-23T17:07:40.226Z,2.25
2019-04-23T17:11:52.636Z,2.00
2019-04-23T17:16:00.893Z,1.95
2019-04-23T17:20:06.475Z,2.42
2019-04-23T17:24:09.677Z,2.52
2019-04-23T17:28:12.760Z,2.12
2019-04-23T17:32:09.799Z,1.98
2019-04-23T17:40:50.307Z,2.05
2019-04-23T17:49:04.547Z,2.10
2019-04-23T17:53:14.896Z,2.25
2019-04-23T17:57:26.119Z,1.80
2019-04-23T18:05:25.183Z,2.25
2019-04-23T18:09:38.539Z,2.20
2019-04-23T18:26:20.733Z,2.15
2019-04-23T18:30:37.908Z,2.00
2019-04-23T18:35:06.609Z,1.80
2019-04-23T18:38:48.897Z,2.20
2019-04-23T18:43:02.554Z,1.55
2019-04-23T18:46:59.051Z,2.37
2019-04-23T18:55:16.659Z,2.12
2019-04-23T19:03:37.316Z,2.58
2019-04-23T19:08:01.005Z,2.60
2019-04-23T19:16:10.042Z,2.20
2019-04-23T19:24:28.424Z,2.10
2019-04-23T19:32:43.217Z,2.17
2019-04-23T19:44:54.363Z,2.33
2019-04-23T19:49:09.723Z,2.02
2019-04-23T19:57:19.460Z,1.92
2019-04-23T20:01:33.835Z,2.40
2019-04-23T20:05:30.861Z,2.25
2019-04-23T20:09:52.056Z,2.30
2019-04-23T20:13:55.575Z,2.22
2019-04-23T20:17:54.189Z,2.00
2019-04-23T20:39:09.145Z,1.75
2019-04-23T20:43:07.074Z,2.60
2019-04-23T20:51:14.318Z,2.20
2019-04-23T20:55:29.023Z,2.27
2019-04-23T20:59:43.806Z,2.25
2019-04-23T21:07:54.289Z,3.33
2019-04-23T21:11:59.248Z,2.50
2019-04-23T21:15:54.679Z,2.67
2019-04-23T21:24:11.317Z,2.75
2019-04-23T21:32:35.151Z,2.72
2019-04-23T21:36:44.424Z,2.90
2019-04-23T21:40:59.149Z,2.67
2019-04-23T21:44:52.820Z,2.42
2019-04-23T21:52:58.076Z,2.95
2019-04-23T21:57:12.149Z,2.65
2019-04-23T22:01:27.849Z,2.55
2019-04-23T22:05:25.004Z,2.87
2019-04-23T22:13:53.815Z,2.58
2019-04-23T22:17:44.821Z,3.00
2019-04-23T22:21:54.452Z,3.17
2019-04-23T22:26:07.938Z,2.20
2019-04-23T22:30:01.281Z,2.65
2019-04-23T22:34:13.840Z,2.67
2019-04-23T22:38:12.857Z,2.50
2019-04-23T22:42:25.206Z,2.30
2019-04-23T22:54:44.575Z,2.37
2019-04-23T22:58:51.614Z,2.20
2019-04-23T23:03:19.668Z,2.08
2019-04-23T23:07:17.109Z,1.75
2019-04-23T23:11:08.503Z,2.30
2019-04-23T23:15:24.484Z,2.10
2019-04-23T23:23:34.420Z,2.12
2019-04-23T23:27:40.356Z,1.92
2019-04-23T23:31:43.938Z,2.08
2019-04-23T23:35:51.476Z,2.12
2019-04-23T23:39:56.962Z,2.30
2019-04-23T23:44:23.987Z,2.35
2019-04-23T23:48:08.111Z,2.47
2019-04-23T23:52:03.521Z,1.92
2019-04-23T23:56:14.264Z,2.10
